Time;durP1;ratioP1;P1;durP2;ratioP2;P2;SDS_P1;SDS_P2;PMS_P1;PMS_P2;Temp;Humidity;BMP_temperature;BMP_pressure;BME280_temperature;BME280_humidity;BME280_pressure;Samples;Min_cycle;Max_cycle;Signal;HPM_P1;HPM_P2
2022/04/19 00:00:13;;;;;;;4.82;3.20;;;;;;;3.80;100.00;100182.78;4994252;28;20495;-77
2022/04/19 00:02:39;;;;;;;6.30;4.70;;;;;;;3.81;100.00;100174.34;5011691;28;20029;-77
2022/04/19 00:05:05;;;;;;;5.57;4.43;;;;;;;3.81;100.00;100220.28;4988766;28;20049;-75
2022/04/19 00:07:31;;;;;;;12.57;11.27;;;;;;;3.72;100.00;100202.75;4989682;28;20569;-77
2022/04/19 00:09:57;;;;;;;6.18;4.80;;;;;;;3.84;100.00;100216.25;4989740;28;20077;-76
2022/04/19 00:12:22;;;;;;;7.13;4.13;;;;;;;3.78;100.00;100199.69;4989749;28;20612;-76
2022/04/19 00:14:48;;;;;;;7.53;4.28;;;;;;;3.73;100.00;100187.50;4989473;28;20034;-73
2022/04/19 00:17:14;;;;;;;6.75;3.30;;;;;;;3.78;100.00;100210.78;4989796;28;20065;-76
2022/04/19 00:19:39;;;;;;;7.15;3.28;;;;;;;3.68;100.00;100205.91;4989377;28;20030;-76
2022/04/19 00:22:05;;;;;;;6.53;3.60;;;;;;;3.75;100.00;100204.59;4989395;28;20486;-75
2022/04/19 00:24:31;;;;;;;4.38;3.45;;;;;;;3.63;100.00;100203.09;4989405;28;20054;-76
2022/04/19 00:26:56;;;;;;;4.22;3.00;;;;;;;3.27;100.00;100145.59;4973213;28;20111;-72
2022/04/19 00:29:22;;;;;;;5.35;3.67;;;;;;;3.73;100.00;100200.28;4989496;28;20033;-75
2022/04/19 00:31:47;;;;;;;8.90;4.63;;;;;;;3.41;100.00;100183.03;4989532;28;20035;-75
2022/04/19 00:34:13;;;;;;;5.15;3.85;;;;;;;3.38;100.00;100182.84;4972060;28;20030;-75
2022/04/19 00:36:38;;;;;;;4.32;3.25;;;;;;;3.16;100.00;100144.94;5005041;28;20125;-75
2022/04/19 00:39:04;;;;;;;4.60;3.45;;;;;;;3.37;100.00;100187.06;5011321;28;20045;-77
2022/04/19 00:41:30;;;;;;;3.97;3.20;;;;;;;3.14;100.00;100143.94;5011471;28;20474;-76
2022/04/19 00:43:55;;;;;;;4.97;3.38;;;;;;;3.34;100.00;100174.13;5006786;28;20476;-73
2022/04/19 00:46:21;;;;;;;4.03;3.22;;;;;;;3.17;100.00;100150.13;5009628;28;20639;-76
2022/04/19 00:48:46;;;;;;;5.05;3.58;;;;;;;3.44;100.00;100180.69;5010727;28;20037;-73
2022/04/19 00:51:13;;;;;;;4.80;3.33;;;;;;;3.37;100.00;100179.41;5010292;28;20418;-75
2022/04/19 00:53:42;;;;;;;4.07;3.40;;;;;;;3.46;100.00;100183.31;5010521;28;20030;-76
2022/04/19 00:56:07;;;;;;;4.93;3.58;;;;;;;3.54;100.00;100188.09;4993033;28;20497;-76
2022/04/19 00:58:33;;;;;;;3.92;3.10;;;;;;;3.39;100.00;100188.03;4989611;28;20050;-76
2022/04/19 01:01:00;;;;;;;5.63;3.40;;;;;;;3.54;100.00;100185.53;5009677;28;20033;-75
2022/04/19 01:03:25;;;;;;;4.20;3.13;;;;;;;3.31;100.00;100156.06;5009965;28;20113;-77
2022/04/19 01:05:53;;;;;;;4.95;3.08;;;;;;;3.32;100.00;100173.13;5010415;28;20215;-79
2022/04/19 01:08:20;;;;;;;4.80;3.47;;;;;;;3.18;100.00;100164.66;5010512;28;20030;-78
2022/04/19 01:10:46;;;;;;;6.13;3.30;;;;;;;3.25;100.00;100155.69;5010062;28;20030;-77
2022/04/19 01:13:18;;;;;;;5.63;3.40;;;;;;;3.40;100.00;100179.59;5009073;28;20099;-76
2022/04/19 01:15:50;;;;;;;3.72;2.95;;;;;;;3.40;100.00;100171.94;5010188;28;20026;-76
2022/04/19 01:18:24;;;;;;;4.25;3.05;;;;;;;3.42;100.00;100160.97;5009875;28;20413;-75
2022/04/19 01:20:50;;;;;;;4.03;3.17;;;;;;;3.32;100.00;100167.16;5009565;28;20116;-78
2022/04/19 01:23:19;;;;;;;5.80;3.40;;;;;;;3.18;100.00;100151.03;5014063;28;20091;-80
2022/04/19 01:25:45;;;;;;;4.72;3.13;;;;;;;3.16;100.00;100135.59;5011423;28;20068;-80
2022/04/19 01:28:10;;;;;;;4.63;2.83;;;;;;;3.07;100.00;100158.00;5011593;28;20076;-79
2022/04/19 01:30:38;;;;;;;4.75;3.47;;;;;;;3.03;100.00;100135.66;5011092;28;20034;-80
2022/04/19 01:33:04;;;;;;;4.40;3.03;;;;;;;3.25;100.00;100176.09;5011106;28;20068;-79
2022/04/19 01:35:29;;;;;;;4.60;3.35;;;;;;;3.14;100.00;100165.25;4993446;28;20061;-79
2022/04/19 01:37:54;;;;;;;4.88;3.55;;;;;;;3.17;100.00;100156.91;5011365;28;20030;-78
2022/04/19 01:40:20;;;;;;;3.97;3.03;;;;;;;3.13;100.00;100163.50;5011197;28;20029;-79
2022/04/19 01:42:58;;;;;;;9.13;3.15;;;;;;;3.27;100.00;100174.53;5011112;28;20037;-78
2022/04/19 01:45:28;;;;;;;4.25;3.03;;;;;;;3.25;100.00;100176.09;5011129;28;20026;-80
2022/04/19 01:47:55;;;;;;;5.43;3.13;;;;;;;3.38;100.00;100172.66;5010987;28;20468;-77
2022/04/19 01:50:21;;;;;;;4.00;2.85;;;;;;;3.53;100.00;100176.13;5010994;28;20048;-78
2022/04/19 01:52:49;;;;;;;3.28;2.67;;;;;;;3.38;100.00;100132.69;5011261;28;20474;-79
2022/04/19 01:55:16;;;;;;;4.32;2.60;;;;;;;3.58;100.00;100150.88;5010443;28;20489;-79
2022/04/19 01:57:46;;;;;;;3.63;2.67;;;;;;;3.55;100.00;100181.31;5010672;28;20549;-77
2022/04/19 02:00:12;;;;;;;;;;;;;;;3.66;100.00;100187.06;5011277;28;20026;-79
2022/04/19 02:02:38;;;;;;;4.18;2.97;;;;;;;3.72;100.00;100174.66;5011040;28;19916;-79
2022/04/19 02:05:05;;;;;;;5.50;3.00;;;;;;;3.67;100.00;100170.97;5010645;28;20564;-79
2022/04/19 02:07:32;;;;;;;4.03;2.88;;;;;;;3.51;100.00;100177.69;5010887;28;20034;-79
2022/04/19 02:10:00;;;;;;;3.97;2.90;;;;;;;3.47;100.00;100172.31;5010646;28;20034;-79
2022/04/19 02:12:27;;;;;;;4.22;3.38;;;;;;;3.48;100.00;100174.09;5010796;28;20156;-79
2022/04/19 02:14:52;;;;;;;6.60;2.83;;;;;;;3.65;100.00;100182.75;5010830;28;20134;-79
2022/04/19 02:17:19;;;;;;;5.47;3.70;;;;;;;3.73;100.00;100172.19;5010411;28;20167;-79
2022/04/19 02:19:47;;;;;;;3.88;2.90;;;;;;;3.67;100.00;100160.75;5010666;28;20117;-78
2022/04/19 02:22:13;;;;;;;4.30;2.90;;;;;;;3.79;100.00;100165.69;5010457;28;20034;-80
2022/04/19 02:24:38;;;;;;;3.85;2.78;;;;;;;3.82;100.00;100182.06;5010340;28;20033;-78
2022/04/19 02:27:05;;;;;;;4.85;2.90;;;;;;;3.51;100.00;100161.50;5010772;28;20026;-79
2022/04/19 02:29:32;;;;;;;4.78;3.25;;;;;;;3.61;100.00;100166.34;5010424;28;20136;-80
2022/04/19 02:31:57;;;;;;;4.72;3.22;;;;;;;3.79;100.00;100173.34;5010798;28;20033;-78
2022/04/19 02:34:23;;;;;;;3.35;2.60;;;;;;;3.74;100.00;100142.47;5010455;28;20037;-78
2022/04/19 02:36:48;;;;;;;3.80;2.58;;;;;;;3.94;100.00;100189.59;4993021;28;20099;-78
2022/04/19 02:39:14;;;;;;;4.20;3.08;;;;;;;3.81;100.00;100185.41;5014307;28;20111;-78
2022/04/19 02:41:39;;;;;;;3.30;2.33;;;;;;;3.87;100.00;100190.88;5030492;28;20072;-79
2022/04/19 02:44:07;;;;;;;3.28;2.78;;;;;;;3.66;100.00;100144.53;5030098;28;20036;-77
2022/04/19 02:46:33;;;;;;;4.20;2.70;;;;;;;4.01;100.00;100181.50;5030484;28;20037;-76
2022/04/19 02:49:04;;;;;;;3.72;2.65;;;;;;;3.81;100.00;100190.53;5030056;28;20026;-77
2022/04/19 02:51:29;;;;;;;5.30;2.78;;;;;;;3.77;100.00;100191.13;5029884;28;20519;-77
2022/04/19 02:53:55;;;;;;;3.78;2.33;;;;;;;3.24;100.00;100141.19;5029667;28;20030;-78
2022/04/19 02:56:20;;;;;;;3.38;2.47;;;;;;;3.26;100.00;100151.47;5012310;28;20042;-77
2022/04/19 02:58:46;;;;;;;4.07;2.58;;;;;;;3.53;100.00;100198.22;5016086;28;20133;-77
2022/04/19 03:01:12;;;;;;;4.07;2.65;;;;;;;3.54;100.00;100200.00;4992690;28;20030;-77
2022/04/19 03:03:37;;;;;;;4.85;3.00;;;;;;;3.34;100.00;100176.69;5010151;28;20700;-78
2022/04/19 03:06:03;;;;;;;4.75;3.10;;;;;;;3.46;100.00;100168.00;4993180;28;20034;-78
2022/04/19 03:08:28;;;;;;;4.13;3.00;;;;;;;3.49;100.00;100180.94;5013532;28;20490;-78
2022/04/19 03:10:55;;;;;;;4.25;3.00;;;;;;;3.65;100.00;100205.72;4996259;28;20034;-77
2022/04/19 03:13:20;;;;;;;5.00;3.10;;;;;;;3.56;100.00;100193.28;5013592;28;20025;-79
2022/04/19 03:15:46;;;;;;;5.68;2.90;;;;;;;3.75;100.00;100214.81;5007894;28;20053;-77
2022/04/19 03:18:11;;;;;;;4.50;2.88;;;;;;;3.70;100.00;100217.97;4993997;28;20069;-78
2022/04/19 03:20:36;;;;;;;4.88;3.13;;;;;;;3.80;100.00;100209.22;4993961;28;20037;-77
2022/04/19 03:28:30;;;;;;;5.20;3.00;;;;;;;3.52;100.00;100176.03;4993894;28;20057;-77
2022/04/19 03:30:55;;;;;;;6.45;4.20;;;;;;;3.77;100.00;100216.66;4993813;28;20465;-78
2022/04/19 03:33:21;;;;;;;4.85;3.63;;;;;;;3.81;100.00;100220.28;4993364;28;20551;-77
2022/04/19 03:35:46;;;;;;;4.90;3.08;;;;;;;3.61;100.00;100209.75;4993634;28;20038;-77
2022/04/19 03:38:11;;;;;;;4.57;3.33;;;;;;;3.70;100.00;100222.19;4991867;28;20042;-78
2022/04/19 03:40:37;;;;;;;28.25;25.48;;;;;;;3.55;100.00;100209.38;4993737;28;20033;-78
2022/04/19 03:43:05;;;;;;;4.70;3.53;;;;;;;3.35;100.00;100203.97;4993999;28;20031;-78
2022/04/19 03:45:30;;;;;;;5.30;3.40;;;;;;;3.27;100.00;100210.25;4992226;28;20085;-77
2022/04/19 03:47:56;;;;;;;4.45;2.88;;;;;;;3.38;100.00;100223.69;4993610;28;20034;-78
2022/04/19 03:50:22;;;;;;;4.78;2.65;;;;;;;3.24;100.00;100218.59;4993760;28;20026;-78
2022/04/19 03:52:50;;;;;;;5.28;2.90;;;;;;;3.25;100.00;100214.38;4993552;28;20442;-78
2022/04/19 03:55:15;;;;;;;6.03;3.80;;;;;;;3.33;100.00;100230.19;4995692;28;20040;-78
2022/04/19 03:57:41;;;;;;;3.87;2.77;;;;;;;3.26;100.00;100218.69;5003128;28;20042;-78
2022/04/19 04:00:07;;;;;;;5.83;3.07;;;;;;;3.27;100.00;100220.47;5016521;28;20109;-77
2022/04/19 04:02:32;;;;;;;4.78;2.60;;;;;;;3.45;100.00;100207.97;5020525;28;20052;-76
2022/04/19 04:04:58;;;;;;;4.53;2.90;;;;;;;3.32;100.00;100183.34;5019849;28;20021;-78
2022/04/19 04:07:26;;;;;;;5.03;2.42;;;;;;;3.51;100.00;100215.09;5017824;28;20027;-75
2022/04/19 04:09:52;;;;;;;4.43;2.70;;;;;;;3.52;100.00;100224.53;4995259;28;20382;-80
2022/04/19 04:12:17;;;;;;;3.83;2.45;;;;;;;3.43;100.00;100216.28;5012652;28;20030;-79
2022/04/19 04:14:43;;;;;;;6.40;3.40;;;;;;;3.49;100.00;100231.97;5012857;28;20036;-78
2022/04/19 04:17:10;;;;;;;7.00;2.55;;;;;;;3.22;100.00;100232.91;5017497;28;20420;-78
2022/04/19 04:19:35;;;;;;;3.65;2.67;;;;;;;3.14;100.00;100223.03;5032525;28;20053;-79
2022/04/19 04:22:01;;;;;;;5.28;2.78;;;;;;;3.20;100.00;100228.50;5022775;28;20069;-82
2022/04/19 04:24:26;;;;;;;3.95;2.47;;;;;;;2.96;100.00;100198.13;5012487;28;20089;-77
2022/04/19 04:26:52;;;;;;;4.20;2.87;;;;;;;3.23;100.00;100237.25;5020582;28;20095;-79
2022/04/19 04:29:17;;;;;;;6.15;3.10;;;;;;;3.33;100.00;100233.59;5032393;28;20108;-79
2022/04/19 04:31:42;;;;;;;5.82;2.63;;;;;;;3.33;100.00;100219.97;5031780;28;20056;-76
2022/04/19 04:34:08;;;;;;;5.80;2.70;;;;;;;3.34;100.00;100219.16;5032405;28;20030;-79
2022/04/19 04:36:34;;;;;;;6.25;2.55;;;;;;;3.02;100.00;100190.88;5032720;28;20104;-79
2022/04/19 04:38:59;;;;;;;6.32;2.90;;;;;;;3.31;100.00;100224.94;5032123;28;20036;-80
2022/04/19 04:41:25;;;;;;;7.10;3.03;;;;;;;3.34;100.00;100226.81;5015019;28;20033;-78
2022/04/19 04:43:50;;;;;;;6.50;3.38;;;;;;;3.43;100.00;100226.50;5049888;28;20024;-78
2022/04/19 04:51:43;;;;;;;7.47;3.85;;;;;;;3.36;100.00;100215.91;5052041;28;20125;-79
2022/04/19 04:54:09;;;;;;;5.88;3.30;;;;;;;3.22;100.00;100237.16;5052053;28;20108;-80
2022/04/19 04:56:35;;;;;;;4.57;3.42;;;;;;;3.27;100.00;100237.44;5033749;28;20033;-81
2022/04/19 04:59:00;;;;;;;5.05;3.55;;;;;;;3.17;100.00;100226.66;5030032;28;20067;-80
2022/04/19 05:01:25;;;;;;;5.57;3.88;;;;;;;3.36;100.00;100243.97;5031671;28;20030;-79
2022/04/19 05:03:51;;;;;;;6.55;3.88;;;;;;;3.34;100.00;100235.38;5027391;28;20018;-81
2022/04/19 05:06:16;;;;;;;6.35;3.53;;;;;;;3.40;100.00;100251.06;5012081;28;20064;-79
2022/04/19 05:08:42;;;;;;;4.78;3.38;;;;;;;3.35;100.00;100232.03;5012085;28;20022;-80
2022/04/19 05:11:07;;;;;;;5.38;3.40;;;;;;;3.22;100.00;100247.34;5011872;28;20033;-80
2022/04/19 05:13:33;;;;;;;4.53;3.20;;;;;;;3.27;100.00;100248.53;5010333;28;20087;-80
2022/04/19 05:15:58;;;;;;;4.53;3.22;;;;;;;3.47;100.00;100246.34;5011891;28;20037;-81
2022/04/19 05:18:27;;;;;;;5.15;3.60;;;;;;;3.64;100.00;100261.00;5026764;28;20532;-80
2022/04/19 05:20:54;;;;;;;5.60;3.53;;;;;;;3.68;100.00;100254.44;5011971;28;20029;-81
2022/04/19 05:23:20;;;;;;;4.80;3.65;;;;;;;3.75;100.00;100266.78;5010404;28;20116;-80
2022/04/19 05:25:46;;;;;;;6.30;4.07;;;;;;;3.65;100.00;100256.78;5011395;28;20061;-80
2022/04/19 05:28:13;;;;;;;6.47;3.60;;;;;;;3.69;100.00;100266.41;5011197;28;20101;-80
2022/04/19 05:30:38;;;;;;;5.15;3.70;;;;;;;3.67;100.00;100257.75;5011411;28;20057;-79
2022/04/19 05:33:05;;;;;;;5.75;3.60;;;;;;;3.88;100.00;100273.50;5011586;28;20481;-79
2022/04/19 05:35:31;;;;;;;5.32;3.80;;;;;;;3.77;100.00;100274.53;5011630;28;20026;-79
2022/04/19 05:37:58;;;;;;;6.03;3.92;;;;;;;3.64;100.00;100278.88;5011260;28;20038;-79
2022/04/19 05:40:23;;;;;;;5.93;3.90;;;;;;;3.63;100.00;100251.59;5011411;28;20096;-79
2022/04/19 05:42:49;;;;;;;7.35;4.13;;;;;;;3.86;100.00;100285.28;5011151;28;20383;-79
2022/04/19 05:45:14;;;;;;;10.88;6.95;;;;;;;3.83;100.00;100285.13;4972744;28;20419;-79
2022/04/19 05:47:40;;;;;;;6.20;4.10;;;;;;;3.35;100.00;100242.25;4989228;28;20042;-79
2022/04/19 05:50:06;;;;;;;8.18;4.63;;;;;;;3.64;100.00;100283.09;4989119;28;20034;-79
2022/04/19 05:52:32;;;;;;;25.35;22.98;;;;;;;3.72;100.00;100284.44;4989207;28;20498;-79
2022/04/19 05:54:57;;;;;;;5.47;4.18;;;;;;;3.55;100.00;100281.75;4988993;28;20073;-79
2022/04/19 05:57:23;;;;;;;8.50;6.82;;;;;;;3.72;100.00;100287.00;4988552;28;20042;-79
2022/04/19 05:59:48;;;;;;;7.53;4.18;;;;;;;3.79;100.00;100283.16;4972617;28;20129;-79
2022/04/19 06:04:59;;;;;;;7.43;5.32;;;;;;;3.70;100.00;100269.06;5008497;28;20052;-78
2022/04/19 06:07:29;;;;;;;15.27;4.32;;;;;;;3.80;100.00;100277.25;5008632;28;20044;-79
2022/04/19 06:09:55;;;;;;;6.38;4.82;;;;;;;3.83;100.00;100305.53;5008445;28;20473;-78
2022/04/19 06:12:21;;;;;;;6.13;4.97;;;;;;;3.49;100.00;100266.06;5008510;28;20080;-78
2022/04/19 06:14:47;;;;;;;6.25;4.25;;;;;;;3.75;100.00;100291.41;5008589;28;20037;-78
2022/04/19 06:17:14;;;;;;;6.05;4.10;;;;;;;3.63;100.00;100279.66;5028209;28;20042;-78
2022/04/19 06:19:40;;;;;;;5.82;4.10;;;;;;;3.56;100.00;100249.44;5030466;28;20464;-79
2022/04/19 06:22:06;;;;;;;6.32;4.30;;;;;;;4.00;100.00;100306.56;5030889;28;20469;-78
2022/04/19 06:24:31;;;;;;;7.20;3.97;;;;;;;3.95;100.00;100296.09;5030342;28;20039;-78
2022/04/19 06:26:57;;;;;;;8.32;4.30;;;;;;;3.92;100.00;100300.13;5019905;28;20121;-79
2022/04/19 06:29:22;;;;;;;5.97;4.00;;;;;;;3.90;100.00;100279.59;5010414;28;20378;-79
2022/04/19 06:31:48;;;;;;;7.38;4.05;;;;;;;4.11;100.00;100307.22;5010762;28;20552;-79
2022/04/19 06:34:16;;;;;;;8.60;3.58;;;;;;;4.15;100.00;100319.38;5010511;28;20034;-78
2022/04/19 06:36:42;;;;;;;9.23;4.18;;;;;;;4.23;100.00;100320.72;5010342;28;20022;-79
2022/04/19 06:39:07;;;;;;;6.22;4.38;;;;;;;3.80;100.00;100300.25;5010287;28;20402;-79
2022/04/19 06:41:33;;;;;;;6.20;3.63;;;;;;;3.96;100.00;100322.50;5013641;28;20109;-78
2022/04/19 06:43:59;;;;;;;9.35;4.13;;;;;;;3.94;100.00;100324.06;5014632;28;20059;-79
2022/04/19 06:46:25;;;;;;;12.40;8.48;;;;;;;4.04;100.00;100322.16;5014329;28;20541;-77
2022/04/19 06:48:54;;;;;;;27.98;17.67;;;;;;;3.95;100.00;100301.19;5014494;28;20066;-78
2022/04/19 06:51:23;;;;;;;12.00;8.57;;;;;;;4.01;100.00;100327.09;5029513;28;20470;-79
2022/04/19 06:53:49;;;;;;;13.52;8.30;;;;;;;3.87;100.00;100326.25;5014527;28;20036;-79
2022/04/19 06:56:15;;;;;;;7.35;5.20;;;;;;;3.79;100.00;100309.59;4995501;28;20037;-79
2022/04/19 06:58:42;;;;;;;9.02;5.53;;;;;;;3.90;100.00;100317.91;5025489;28;20049;-79
2022/04/19 07:01:08;;;;;;;7.10;4.35;;;;;;;4.15;100.00;100334.69;5034195;28;20036;-79
2022/04/19 07:03:34;;;;;;;6.03;4.28;;;;;;;3.97;100.00;100337.03;5033779;28;20531;-79
2022/04/19 07:06:00;;;;;;;6.85;3.40;;;;;;;3.91;100.00;100334.97;5033529;28;20065;-80
2022/04/19 07:08:26;;;;;;;5.97;4.38;;;;;;;3.77;100.00;100303.50;5033976;28;20029;-79
2022/04/19 07:10:51;;;;;;;6.40;3.85;;;;;;;3.77;100.00;100305.16;5033852;28;20805;-78
2022/04/19 07:13:17;;;;;;;4.88;3.80;;;;;;;3.98;100.00;100338.81;5033658;28;20035;-78
2022/04/19 07:15:42;;;;;;;4.60;3.20;;;;;;;4.01;100.00;100344.09;5031112;28;20532;-78
2022/04/19 07:18:08;;;;;;;6.55;3.63;;;;;;;3.87;100.00;100294.72;5031035;28;20087;-79
2022/04/19 07:28:45;;;;;;;6.47;3.85;;;;;;;4.13;100.00;100334.63;5031068;28;20036;-80
2022/04/19 07:31:10;;;;;;;5.85;4.03;;;;;;;4.17;100.00;100338.25;5030779;28;20097;-79
2022/04/19 07:33:38;;;;;;;7.85;3.40;;;;;;;4.16;100.00;100336.47;5030871;28;20153;-79
2022/04/19 07:36:04;;;;;;;4.55;3.25;;;;;;;4.27;100.00;100329.47;5030769;28;20049;-79
2022/04/19 07:38:30;;;;;;;8.05;3.83;;;;;;;4.40;100.00;100346.41;5014371;28;20156;-79
2022/04/19 07:40:55;;;;;;;6.03;3.88;;;;;;;4.37;100.00;100335.22;5030782;28;20509;-79
2022/04/19 07:43:20;;;;;;;8.48;4.70;;;;;;;4.60;100.00;100340.81;5030538;28;20079;-80
2022/04/19 07:45:46;;;;;;;6.07;3.83;;;;;;;4.58;100.00;100324.47;5014361;28;20029;-80
2022/04/19 07:48:12;;;;;;;7.15;4.10;;;;;;;4.64;100.00;100314.63;5032744;28;20408;-80
2022/04/19 07:50:39;;;;;;;7.32;4.82;;;;;;;4.77;100.00;100325.56;5033136;28;20022;-80
2022/04/19 07:53:05;;;;;;;6.90;4.75;;;;;;;4.89;100.00;100333.06;5032196;28;20450;-80
2022/04/19 07:55:31;;;;;;;6.88;5.43;;;;;;;4.97;100.00;100337.84;5033063;28;20025;-79
2022/04/19 07:57:57;;;;;;;8.02;5.00;;;;;;;5.05;100.00;100334.81;5032922;28;20217;-80
2022/04/19 08:00:27;;;;;;;14.15;7.60;;;;;;;5.17;100.00;100322.69;5032902;28;20104;-82
2022/04/19 08:02:53;;;;;;;10.85;7.65;;;;;;;5.04;100.00;100320.28;5032914;28;20112;-80
2022/04/19 08:05:18;;;;;;;9.68;6.45;;;;;;;4.95;100.00;100288.25;5032693;28;20108;-78
2022/04/19 08:07:44;;;;;;;9.32;6.95;;;;;;;5.23;100.00;100337.53;5032714;28;20495;-80
2022/04/19 08:10:09;;;;;;;9.60;5.85;;;;;;;4.80;100.00;100330.88;5034530;28;20041;-80
2022/04/19 08:12:35;;;;;;;9.43;6.18;;;;;;;5.11;100.00;100324.91;5032900;28;20044;-81
2022/04/19 08:15:01;;;;;;;7.70;6.22;;;;;;;5.33;100.00;100340.72;5032529;28;20472;-81
2022/04/19 08:17:26;;;;;;;6.65;5.18;;;;;;;5.23;100.00;100307.69;5032335;28;20480;-81
2022/04/19 08:19:54;;;;;;;7.80;5.43;;;;;;;5.48;100.00;100335.56;4980938;28;20045;-80
2022/04/19 08:22:21;;;;;;;28.30;20.85;;;;;;;5.56;100.00;100341.09;5032520;28;20026;-80
2022/04/19 08:24:47;;;;;;;13.75;8.77;;;;;;;5.61;100.00;100339.66;5032129;28;20037;-79
2022/04/19 08:27:16;;;;;;;8.20;6.28;;;;;;;5.57;100.00;100342.88;5031975;28;20034;-81
2022/04/19 08:29:43;;;;;;;10.07;6.65;;;;;;;5.69;100.00;100346.88;5032223;28;20021;-79
2022/04/19 08:32:09;;;;;;;8.95;6.10;;;;;;;5.57;100.00;100298.44;5031605;28;20037;-79
2022/04/19 08:34:35;;;;;;;8.85;5.75;;;;;;;5.92;100.00;100343.00;5031959;28;20017;-79
2022/04/19 08:37:02;;;;;;;7.47;6.38;;;;;;;5.90;100.00;100340.34;5031910;28;20021;-78
2022/04/19 08:39:28;;;;;;;8.68;5.88;;;;;;;5.92;100.00;100335.31;5031628;28;20029;-78
2022/04/19 08:41:54;;;;;;;7.15;5.75;;;;;;;5.60;100.00;100296.91;5031563;28;20116;-78
2022/04/19 08:44:19;;;;;;;9.15;6.65;;;;;;;5.91;100.00;100336.13;5031673;28;20025;-78
2022/04/19 08:46:45;;;;;;;9.90;7.18;;;;;;;5.77;100.00;100290.16;5031968;28;20032;-78
2022/04/19 08:49:12;;;;;;;10.90;7.20;;;;;;;5.95;100.00;100320.97;5031669;28;20497;-78
2022/04/19 08:51:39;;;;;;;12.93;7.63;;;;;;;6.13;100.00;100330.47;5031714;28;20101;-78
2022/04/19 08:59:37;;;;;;;8.43;6.55;;;;;;;6.44;100.00;100337.19;5031340;28;20052;-79
2022/04/19 09:02:04;;;;;;;10.38;7.10;;;;;;;6.43;100.00;100331.19;5031464;28;20034;-77
2022/04/19 09:04:30;;;;;;;9.10;7.35;;;;;;;6.39;100.00;100331.84;4979330;28;20048;-78
2022/04/19 09:06:57;;;;;;;8.95;7.18;;;;;;;6.38;100.00;100335.22;5031043;28;20117;-78
2022/04/19 09:09:25;;;;;;;11.52;7.45;;;;;;;6.32;100.00;100316.94;5031513;28;20405;-80
2022/04/19 09:11:51;;;;;;;10.13;7.07;;;;;;;6.36;100.00;100333.38;5031117;28;20716;-80
2022/04/19 09:14:17;;;;;;;8.32;6.45;;;;;;;6.26;100.00;100321.75;5031616;28;20032;-78
2022/04/19 09:16:44;;;;;;;8.52;6.80;;;;;;;6.07;100.00;100336.16;5031103;28;20033;-80
2022/04/19 09:19:10;;;;;;;8.00;6.53;;;;;;;5.91;100.00;100303.69;5030885;28;20076;-79
2022/04/19 09:27:32;;;;;;;7.13;6.00;;;;;;;6.05;100.00;100322.38;5095645;22;20490;-82
2022/04/19 09:30:16;;;;;;;10.05;7.03;;;;;;;6.07;100.00;100335.25;4972505;28;20038;-79
2022/04/19 09:32:58;;;;;;;8.43;6.95;;;;;;;6.06;100.00;100336.09;4983223;28;20065;-80
2022/04/19 09:35:31;;;;;;;8.63;7.38;;;;;;;6.09;100.00;100336.25;4990562;28;20030;-81
2022/04/19 09:37:57;;;;;;;10.43;8.18;;;;;;;6.17;100.00;100331.50;4991842;28;20027;-80
2022/04/19 09:40:34;;;;;;;10.07;8.15;;;;;;;6.16;100.00;100325.50;4989820;28;20030;-79
2022/04/19 09:43:18;;;;;;;9.43;6.88;;;;;;;6.29;100.00;100339.84;4991723;28;20026;-79
2022/04/19 09:46:02;;;;;;;7.97;7.15;;;;;;;6.30;100.00;100336.47;4991082;28;20034;-78
2022/04/19 09:48:35;;;;;;;8.38;6.68;;;;;;;6.40;100.00;100338.72;4990895;28;20387;-78
2022/04/19 09:51:11;;;;;;;9.93;7.32;;;;;;;6.30;100.00;100319.41;4990914;28;20038;-81
2022/04/19 09:53:45;;;;;;;10.02;7.65;;;;;;;6.58;100.00;100348.16;4991514;28;20034;-79
2022/04/19 09:56:16;;;;;;;14.85;8.48;;;;;;;6.50;100.00;100336.63;4991545;28;20038;-85
2022/04/19 09:58:44;;;;;;;7.93;7.07;;;;;;;6.48;100.00;100352.81;4991157;28;20027;-82
2022/04/19 10:08:10;;;;;;;19.40;11.75;;;;;;;6.28;100.00;100323.59;4990787;28;20109;-81
2022/04/19 10:09:37;;;;;;;7.82;6.97;;;;;;;6.14;100.00;100347.63;4991282;28;20084;-77
2022/04/19 10:12:07;;;;;;;8.85;7.38;;;;;;;6.02;100.00;100344.41;4990080;28;20110;-77
2022/04/19 10:14:35;;;;;;;8.73;7.82;;;;;;;6.19;100.00;100351.28;4991326;28;20038;-77
2022/04/19 10:17:02;;;;;;;8.90;7.53;;;;;;;6.15;100.00;100316.06;4991376;28;20057;-76
2022/04/19 10:19:29;;;;;;;9.10;7.75;;;;;;;6.50;100.00;100352.91;4991228;28;20035;-77
2022/04/19 10:21:58;;;;;;;9.77;7.80;;;;;;;6.45;100.00;100337.25;4990727;28;20014;-77
2022/04/19 10:24:25;;;;;;;9.45;6.72;;;;;;;6.22;100.00;100291.59;4988830;28;20514;-76
2022/04/19 10:26:51;;;;;;;11.35;8.10;;;;;;;6.39;100.00;100336.97;4990704;28;20098;-74
2022/04/19 10:29:22;;;;;;;8.95;8.05;;;;;;;6.46;100.00;100341.59;4990839;28;20058;-78
2022/04/19 10:32:08;;;;;;;9.25;7.80;;;;;;;6.51;100.00;100346.97;4989784;28;20490;-79
2022/04/19 10:34:39;;;;;;;9.68;7.68;;;;;;;6.55;100.00;100345.44;4990882;28;20113;-77
2022/04/19 10:37:26;;;;;;;10.18;8.38;;;;;;;6.71;100.00;100347.09;4989613;28;20034;-79
2022/04/19 10:40:14;;;;;;;9.23;7.88;;;;;;;6.79;100.00;100345.78;4990995;28;20057;-77
2022/04/19 10:42:43;;;;;;;8.43;7.50;;;;;;;6.71;100.00;100334.28;4990420;28;20506;-77
2022/04/19 10:45:11;;;;;;;10.85;7.70;;;;;;;6.91;100.00;100346.41;4990686;28;20026;-76
2022/04/19 10:47:57;;;;;;;10.60;7.85;;;;;;;6.87;98.83;100347.06;4990214;28;20032;-81
2022/04/19 10:50:30;;;;;;;12.88;8.80;;;;;;;6.88;100.00;100335.09;4990698;28;20482;-80
2022/04/19 10:53:03;;;;;;;13.75;9.77;;;;;;;6.56;100.00;100273.69;4989260;28;20061;-79
2022/04/19 10:55:36;;;;;;;28.80;22.77;;;;;;;7.08;100.00;100349.81;4990922;28;20031;-80
2022/04/19 10:58:09;;;;;;;87.50;61.38;;;;;;;7.12;100.00;100346.56;4990656;28;20042;-81
2022/04/19 11:00:34;;;;;;;10.40;8.43;;;;;;;7.19;99.69;100349.44;4990727;28;20030;-77
2022/04/19 11:03:29;;;;;;;15.25;8.65;;;;;;;7.23;100.00;100341.97;4990963;28;20031;-79
2022/04/19 11:05:56;;;;;;;14.32;9.18;;;;;;;7.25;100.00;100339.47;4949710;28;20043;-80
2022/04/19 11:08:25;;;;;;;9.88;8.65;;;;;;;6.92;99.56;100317.38;4949409;29;20050;-81
2022/04/19 11:10:56;;;;;;;13.10;8.48;;;;;;;6.95;97.91;100355.13;4949670;29;20039;-76
2022/04/19 11:13:39;;;;;;;29.92;21.50;;;;;;;6.78;98.36;100350.06;4949519;29;20046;-76
2022/04/19 11:16:08;;;;;;;35.83;24.67;;;;;;;6.70;99.73;100355.59;4949018;29;20171;-76
2022/04/19 11:18:39;;;;;;;16.85;11.48;;;;;;;6.82;98.91;100356.22;4949357;29;20114;-78
2022/04/19 11:21:06;;;;;;;20.48;13.65;;;;;;;7.01;100.00;100352.00;4947791;28;20042;-76
2022/04/19 11:23:48;;;;;;;16.00;11.88;;;;;;;6.93;97.67;100342.25;4955325;28;20055;-77
2022/04/19 11:26:35;;;;;;;15.32;9.75;;;;;;;6.71;99.91;100352.25;4946926;28;20062;-80
2022/04/19 11:29:09;;;;;;;10.90;8.40;;;;;;;6.76;100.00;100346.53;4951616;29;20411;-77
2022/04/19 11:31:35;;;;;;;14.05;8.52;;;;;;;6.94;100.00;100345.66;4951332;28;20114;-78
2022/04/19 11:34:12;;;;;;;10.32;8.07;;;;;;;7.00;97.69;100347.69;4951627;29;20763;-79
2022/04/19 11:36:37;;;;;;;10.68;7.80;;;;;;;6.97;97.81;100322.75;4951133;28;20047;-78
2022/04/19 11:39:04;;;;;;;11.88;8.30;;;;;;;7.18;97.38;100345.09;4950801;29;20762;-77
2022/04/19 11:46:51;;;;;;;12.18;8.48;;;;;;;7.26;95.85;100315.56;4990005;28;20040;-75
2022/04/19 11:49:16;;;;;;;17.10;8.40;;;;;;;7.32;96.64;100345.81;4989443;28;20022;-76
2022/04/19 11:51:56;;;;;;;13.82;9.25;;;;;;;7.22;96.34;100332.50;4973490;28;20042;-77
2022/04/19 11:54:23;;;;;;;11.90;8.43;;;;;;;7.20;96.10;100316.16;4989893;28;20413;-75
2022/04/19 11:56:51;;;;;;;12.98;9.00;;;;;;;7.38;96.03;100322.97;4988346;28;20148;-76
2022/04/19 11:59:16;;;;;;;15.82;9.38;;;;;;;7.57;97.01;100346.13;4989893;28;20029;-76
2022/04/19 12:01:49;;;;;;;12.40;9.93;;;;;;;7.56;95.18;100322.94;4989730;28;20441;-77
2022/04/19 12:04:14;;;;;;;17.00;10.88;;;;;;;7.58;94.88;100323.91;4983820;28;20039;-78
2022/04/19 12:06:46;;;;;;;12.45;8.73;;;;;;;7.73;92.67;100324.63;4981301;28;20091;-76
2022/04/19 12:09:15;;;;;;;10.20;8.65;;;;;;;7.58;93.09;100327.34;4992898;28;20474;-76